sensor_id;sensor_type;location;lat;lon;timestamp;P1;durP1;ratioP1;P2;durP2;ratioP2
18999;SDS011;9633;50.980;13.850;2023-07-28T00:00:01;0.50;;;0.50;;
18999;SDS011;9633;50.980;13.850;2023-07-28T00:01:40;0.77;;;0.60;;
18999;SDS011;9633;50.980;13.850;2023-07-28T00:03:12;0.67;;;0.60;;
18999;SDS011;9633;50.980;13.850;2023-07-28T00:04:45;0.67;;;0.60;;
18999;SDS011;9633;50.980;13.850;2023-07-28T00:06:19;0.80;;;0.80;;
18999;SDS011;9633;50.980;13.850;2023-07-28T00:07:51;0.70;;;0.60;;
18999;SDS011;9633;50.980;13.850;2023-07-28T00:09:24;0.60;;;0.60;;
18999;SDS011;9633;50.980;13.850;2023-07-28T00:10:56;1.50;;;0.70;;
18999;SDS011;9633;50.980;13.850;2023-07-28T00:12:29;0.70;;;0.70;;
18999;SDS011;9633;50.980;13.850;2023-07-28T00:14:02;1.63;;;0.50;;
18999;SDS011;9633;50.980;13.850;2023-07-28T00:15:36;1.50;;;0.60;;
18999;SDS011;9633;50.980;13.850;2023-07-28T00:17:08;0.97;;;0.80;;
18999;SDS011;9633;50.980;13.850;2023-07-28T00:18:42;0.80;;;0.80;;
18999;SDS011;9633;50.980;13.850;2023-07-28T00:20:14;0.60;;;0.60;;
18999;SDS011;9633;50.980;13.850;2023-07-28T00:21:47;0.93;;;0.60;;
18999;SDS011;9633;50.980;13.850;2023-07-28T00:23:20;0.50;;;0.50;;
18999;SDS011;9633;50.980;13.850;2023-07-28T00:24:53;0.60;;;0.60;;
18999;SDS011;9633;50.980;13.850;2023-07-28T00:26:26;0.67;;;0.53;;
18999;SDS011;9633;50.980;13.850;2023-07-28T00:27:59;1.00;;;0.80;;
18999;SDS011;9633;50.980;13.850;2023-07-28T00:29:31;0.93;;;0.73;;
18999;SDS011;9633;50.980;13.850;2023-07-28T00:31:07;2.53;;;0.83;;
18999;SDS011;9633;50.980;13.850;2023-07-28T00:32:40;0.73;;;0.70;;
18999;SDS011;9633;50.980;13.850;2023-07-28T00:34:13;1.00;;;0.90;;
18999;SDS011;9633;50.980;13.850;2023-07-28T00:35:46;0.97;;;0.87;;
18999;SDS011;9633;50.980;13.850;2023-07-28T00:37:19;1.93;;;0.80;;
18999;SDS011;9633;50.980;13.850;2023-07-28T00:38:52;1.43;;;0.80;;
18999;SDS011;9633;50.980;13.850;2023-07-28T00:40:24;2.03;;;1.07;;
18999;SDS011;9633;50.980;13.850;2023-07-28T00:41:58;3.03;;;0.90;;
18999;SDS011;9633;50.980;13.850;2023-07-28T00:43:30;1.80;;;0.90;;
18999;SDS011;9633;50.980;13.850;2023-07-28T00:45:03;1.20;;;0.90;;
18999;SDS011;9633;50.980;13.850;2023-07-28T00:46:39;1.63;;;0.70;;
18999;SDS011;9633;50.980;13.850;2023-07-28T00:48:12;0.73;;;0.73;;
18999;SDS011;9633;50.980;13.850;2023-07-28T00:49:47;1.17;;;0.93;;
18999;SDS011;9633;50.980;13.850;2023-07-28T00:51:19;1.93;;;1.00;;
18999;SDS011;9633;50.980;13.850;2023-07-28T00:52:53;1.40;;;0.80;;
18999;SDS011;9633;50.980;13.850;2023-07-28T00:54:26;1.57;;;0.90;;
18999;SDS011;9633;50.980;13.850;2023-07-28T00:56:00;0.93;;;0.80;;
18999;SDS011;9633;50.980;13.850;2023-07-28T00:57:33;2.03;;;0.83;;
18999;SDS011;9633;50.980;13.850;2023-07-28T00:59:06;1.23;;;0.90;;
18999;SDS011;9633;50.980;13.850;2023-07-28T01:00:38;0.80;;;0.80;;
18999;SDS011;9633;50.980;13.850;2023-07-28T01:02:13;1.33;;;0.90;;
18999;SDS011;9633;50.980;13.850;2023-07-28T01:03:45;1.20;;;0.90;;
18999;SDS011;9633;50.980;13.850;2023-07-28T01:05:19;1.30;;;1.10;;
18999;SDS011;9633;50.980;13.850;2023-07-28T01:06:57;1.20;;;1.10;;
18999;SDS011;9633;50.980;13.850;2023-07-28T01:08:36;1.47;;;1.10;;
18999;SDS011;9633;50.980;13.850;2023-07-28T01:10:17;1.30;;;1.20;;
18999;SDS011;9633;50.980;13.850;2023-07-28T01:11:55;1.27;;;1.10;;
18999;SDS011;9633;50.980;13.850;2023-07-28T01:13:28;1.47;;;1.10;;
18999;SDS011;9633;50.980;13.850;2023-07-28T01:15:01;2.40;;;1.20;;
18999;SDS011;9633;50.980;13.850;2023-07-28T01:16:33;1.77;;;1.00;;
18999;SDS011;9633;50.980;13.850;2023-07-28T01:18:08;1.37;;;1.27;;
18999;SDS011;9633;50.980;13.850;2023-07-28T01:19:42;4.60;;;1.23;;
18999;SDS011;9633;50.980;13.850;2023-07-28T01:21:16;2.17;;;1.13;;
18999;SDS011;9633;50.980;13.850;2023-07-28T01:22:58;1.53;;;1.10;;
18999;SDS011;9633;50.980;13.850;2023-07-28T01:24:41;2.27;;;1.20;;
18999;SDS011;9633;50.980;13.850;2023-07-28T01:26:30;1.40;;;1.13;;
18999;SDS011;9633;50.980;13.850;2023-07-28T01:28:05;1.37;;;1.20;;
18999;SDS011;9633;50.980;13.850;2023-07-28T01:29:38;1.93;;;1.10;;
18999;SDS011;9633;50.980;13.850;2023-07-28T01:31:12;2.33;;;1.30;;
18999;SDS011;9633;50.980;13.850;2023-07-28T01:32:45;2.67;;;1.10;;
18999;SDS011;9633;50.980;13.850;2023-07-28T01:34:19;1.63;;;1.40;;
18999;SDS011;9633;50.980;13.850;2023-07-28T01:35:52;1.30;;;1.20;;
18999;SDS011;9633;50.980;13.850;2023-07-28T01:37:24;2.20;;;1.30;;
18999;SDS011;9633;50.980;13.850;2023-07-28T01:38:57;1.40;;;1.30;;
18999;SDS011;9633;50.980;13.850;2023-07-28T01:40:29;1.60;;;1.40;;
18999;SDS011;9633;50.980;13.850;2023-07-28T01:42:04;1.93;;;1.17;;
18999;SDS011;9633;50.980;13.850;2023-07-28T01:43:37;2.63;;;1.43;;
18999;SDS011;9633;50.980;13.850;2023-07-28T01:45:10;1.43;;;1.20;;
18999;SDS011;9633;50.980;13.850;2023-07-28T01:46:42;1.20;;;1.10;;
18999;SDS011;9633;50.980;13.850;2023-07-28T01:48:16;2.23;;;1.60;;
18999;SDS011;9633;50.980;13.850;2023-07-28T01:49:48;1.73;;;1.50;;
18999;SDS011;9633;50.980;13.850;2023-07-28T01:51:21;1.63;;;1.50;;
18999;SDS011;9633;50.980;13.850;2023-07-28T01:52:54;1.47;;;1.30;;
18999;SDS011;9633;50.980;13.850;2023-07-28T01:54:27;3.17;;;1.80;;
18999;SDS011;9633;50.980;13.850;2023-07-28T01:56:02;3.23;;;1.60;;
18999;SDS011;9633;50.980;13.850;2023-07-28T01:57:39;3.07;;;1.60;;
18999;SDS011;9633;50.980;13.850;2023-07-28T01:59:13;3.13;;;1.60;;
18999;SDS011;9633;50.980;13.850;2023-07-28T02:00:45;3.70;;;1.90;;
18999;SDS011;9633;50.980;13.850;2023-07-28T02:02:18;3.87;;;1.97;;
18999;SDS011;9633;50.980;13.850;2023-07-28T02:03:51;5.00;;;2.03;;
18999;SDS011;9633;50.980;13.850;2023-07-28T02:05:24;2.00;;;1.73;;
18999;SDS011;9633;50.980;13.850;2023-07-28T02:06:56;2.53;;;1.80;;
18999;SDS011;9633;50.980;13.850;2023-07-28T02:08:29;3.67;;;2.00;;
18999;SDS011;9633;50.980;13.850;2023-07-28T02:10:02;2.37;;;1.80;;
18999;SDS011;9633;50.980;13.850;2023-07-28T02:11:36;2.57;;;1.93;;
18999;SDS011;9633;50.980;13.850;2023-07-28T02:13:10;2.80;;;1.60;;
18999;SDS011;9633;50.980;13.850;2023-07-28T02:14:43;2.43;;;1.73;;
18999;SDS011;9633;50.980;13.850;2023-07-28T02:16:16;3.73;;;2.47;;
18999;SDS011;9633;50.980;13.850;2023-07-28T02:17:48;2.10;;;1.90;;
18999;SDS011;9633;50.980;13.850;2023-07-28T02:19:23;2.63;;;1.90;;
18999;SDS011;9633;50.980;13.850;2023-07-28T02:20:56;1.93;;;1.50;;
18999;SDS011;9633;50.980;13.850;2023-07-28T02:22:29;3.77;;;1.70;;
18999;SDS011;9633;50.980;13.850;2023-07-28T02:24:01;2.57;;;1.30;;
18999;SDS011;9633;50.980;13.850;2023-07-28T02:25:34;2.70;;;1.63;;
18999;SDS011;9633;50.980;13.850;2023-07-28T02:27:06;2.10;;;1.60;;
18999;SDS011;9633;50.980;13.850;2023-07-28T02:28:41;2.47;;;1.70;;
18999;SDS011;9633;50.980;13.850;2023-07-28T02:30:14;1.93;;;1.53;;
18999;SDS011;9633;50.980;13.850;2023-07-28T02:31:48;1.63;;;1.50;;
18999;SDS011;9633;50.980;13.850;2023-07-28T02:33:20;3.33;;;1.50;;
18999;SDS011;9633;50.980;13.850;2023-07-28T02:34:53;1.50;;;1.40;;
18999;SDS011;9633;50.980;13.850;2023-07-28T02:36:25;3.07;;;1.50;;
18999;SDS011;9633;50.980;13.850;2023-07-28T02:37:59;2.47;;;1.60;;
18999;SDS011;9633;50.980;13.850;2023-07-28T02:39:32;2.20;;;1.20;;
18999;SDS011;9633;50.980;13.850;2023-07-28T02:41:04;2.53;;;1.23;;
18999;SDS011;9633;50.980;13.850;2023-07-28T02:42:38;2.23;;;1.23;;
18999;SDS011;9633;50.980;13.850;2023-07-28T02:44:12;1.50;;;1.40;;
18999;SDS011;9633;50.980;13.850;2023-07-28T02:45:47;2.40;;;1.50;;
18999;SDS011;9633;50.980;13.850;2023-07-28T02:47:20;1.70;;;1.60;;
18999;SDS011;9633;50.980;13.850;2023-07-28T02:48:53;1.53;;;1.43;;
18999;SDS011;9633;50.980;13.850;2023-07-28T02:50:25;1.47;;;1.37;;
18999;SDS011;9633;50.980;13.850;2023-07-28T02:51:58;1.50;;;1.40;;
18999;SDS011;9633;50.980;13.850;2023-07-28T02:53:31;2.40;;;1.50;;
18999;SDS011;9633;50.980;13.850;2023-07-28T02:55:04;1.83;;;1.60;;
18999;SDS011;9633;50.980;13.850;2023-07-28T02:56:37;1.40;;;1.30;;
18999;SDS011;9633;50.980;13.850;2023-07-28T02:58:14;2.43;;;1.60;;
18999;SDS011;9633;50.980;13.850;2023-07-28T02:59:49;2.13;;;1.40;;
18999;SDS011;9633;50.980;13.850;2023-07-28T03:01:23;1.67;;;1.50;;
18999;SDS011;9633;50.980;13.850;2023-07-28T03:02:56;2.00;;;1.40;;
18999;SDS011;9633;50.980;13.850;2023-07-28T03:04:29;1.90;;;1.33;;
18999;SDS011;9633;50.980;13.850;2023-07-28T03:06:19;2.40;;;1.43;;
18999;SDS011;9633;50.980;13.850;2023-07-28T03:07:53;2.80;;;1.60;;
18999;SDS011;9633;50.980;13.850;2023-07-28T03:09:25;2.50;;;1.40;;
18999;SDS011;9633;50.980;13.850;2023-07-28T03:11:05;1.33;;;1.23;;
18999;SDS011;9633;50.980;13.850;2023-07-28T03:12:39;3.60;;;1.30;;
18999;SDS011;9633;50.980;13.850;2023-07-28T03:14:12;1.80;;;1.47;;
18999;SDS011;9633;50.980;13.850;2023-07-28T03:15:45;1.77;;;1.50;;
18999;SDS011;9633;50.980;13.850;2023-07-28T03:17:19;1.77;;;1.50;;
18999;SDS011;9633;50.980;13.850;2023-07-28T03:18:51;2.13;;;1.30;;
18999;SDS011;9633;50.980;13.850;2023-07-28T03:20:24;1.67;;;1.50;;
18999;SDS011;9633;50.980;13.850;2023-07-28T03:21:56;2.87;;;1.30;;
18999;SDS011;9633;50.980;13.850;2023-07-28T03:23:30;1.43;;;1.20;;
18999;SDS011;9633;50.980;13.850;2023-07-28T03:25:02;3.00;;;1.43;;
18999;SDS011;9633;50.980;13.850;2023-07-28T03:26:35;1.87;;;1.63;;
18999;SDS011;9633;50.980;13.850;2023-07-28T03:28:09;3.23;;;1.40;;
18999;SDS011;9633;50.980;13.850;2023-07-28T03:29:41;1.40;;;1.30;;
18999;SDS011;9633;50.980;13.850;2023-07-28T03:31:17;2.17;;;1.60;;
18999;SDS011;9633;50.980;13.850;2023-07-28T03:32:49;2.10;;;1.70;;
18999;SDS011;9633;50.980;13.850;2023-07-28T03:34:22;2.00;;;1.37;;
18999;SDS011;9633;50.980;13.850;2023-07-28T03:35:55;3.03;;;1.63;;
18999;SDS011;9633;50.980;13.850;2023-07-28T03:37:29;2.27;;;1.30;;
18999;SDS011;9633;50.980;13.850;2023-07-28T03:39:02;2.47;;;1.73;;
18999;SDS011;9633;50.980;13.850;2023-07-28T03:40:35;1.53;;;1.40;;
18999;SDS011;9633;50.980;13.850;2023-07-28T03:42:07;2.00;;;1.47;;
18999;SDS011;9633;50.980;13.850;2023-07-28T03:43:41;1.50;;;1.40;;
18999;SDS011;9633;50.980;13.850;2023-07-28T03:45:14;2.87;;;1.50;;
18999;SDS011;9633;50.980;13.850;2023-07-28T03:46:49;2.40;;;1.80;;
18999;SDS011;9633;50.980;13.850;2023-07-28T03:48:22;2.70;;;1.63;;
18999;SDS011;9633;50.980;13.850;2023-07-28T03:49:55;3.70;;;1.50;;
18999;SDS011;9633;50.980;13.850;2023-07-28T03:51:27;1.80;;;1.50;;
18999;SDS011;9633;50.980;13.850;2023-07-28T03:53:00;1.53;;;1.40;;
18999;SDS011;9633;50.980;13.850;2023-07-28T03:54:32;1.73;;;1.60;;
18999;SDS011;9633;50.980;13.850;2023-07-28T03:56:05;1.97;;;1.70;;
18999;SDS011;9633;50.980;13.850;2023-07-28T03:57:39;1.37;;;1.27;;
18999;SDS011;9633;50.980;13.850;2023-07-28T03:59:11;2.20;;;1.53;;
18999;SDS011;9633;50.980;13.850;2023-07-28T04:00:44;2.23;;;1.53;;
18999;SDS011;9633;50.980;13.850;2023-07-28T04:02:20;2.20;;;1.30;;
18999;SDS011;9633;50.980;13.850;2023-07-28T04:03:52;1.73;;;1.53;;
18999;SDS011;9633;50.980;13.850;2023-07-28T04:05:25;2.50;;;1.70;;
18999;SDS011;9633;50.980;13.850;2023-07-28T04:06:57;1.50;;;1.40;;
18999;SDS011;9633;50.980;13.850;2023-07-28T04:08:30;4.13;;;1.57;;
18999;SDS011;9633;50.980;13.850;2023-07-28T04:10:03;2.03;;;1.40;;
18999;SDS011;9633;50.980;13.850;2023-07-28T04:11:37;2.63;;;1.47;;
18999;SDS011;9633;50.980;13.850;2023-07-28T04:13:10;1.90;;;1.50;;
18999;SDS011;9633;50.980;13.850;2023-07-28T04:14:43;2.70;;;1.40;;
18999;SDS011;9633;50.980;13.850;2023-07-28T04:16:15;2.57;;;1.50;;
18999;SDS011;9633;50.980;13.850;2023-07-28T04:17:50;2.20;;;1.73;;
18999;SDS011;9633;50.980;13.850;2023-07-28T04:19:22;2.40;;;1.60;;
18999;SDS011;9633;50.980;13.850;2023-07-28T04:20:56;2.23;;;1.60;;
18999;SDS011;9633;50.980;13.850;2023-07-28T04:22:28;3.57;;;1.70;;
18999;SDS011;9633;50.980;13.850;2023-07-28T04:24:01;2.03;;;1.70;;
18999;SDS011;9633;50.980;13.850;2023-07-28T04:25:35;3.20;;;1.90;;
18999;SDS011;9633;50.980;13.850;2023-07-28T04:27:07;3.03;;;1.80;;
18999;SDS011;9633;50.980;13.850;2023-07-28T04:28:40;2.23;;;1.60;;
18999;SDS011;9633;50.980;13.850;2023-07-28T04:30:12;2.67;;;1.73;;
18999;SDS011;9633;50.980;13.850;2023-07-28T04:31:46;2.53;;;1.60;;
18999;SDS011;9633;50.980;13.850;2023-07-28T04:33:26;1.73;;;1.50;;
18999;SDS011;9633;50.980;13.850;2023-07-28T04:34:58;1.70;;;1.60;;
18999;SDS011;9633;50.980;13.850;2023-07-28T04:36:50;2.30;;;1.47;;
18999;SDS011;9633;50.980;13.850;2023-07-28T04:38:27;2.47;;;1.40;;
18999;SDS011;9633;50.980;13.850;2023-07-28T04:40:03;2.23;;;1.57;;
18999;SDS011;9633;50.980;13.850;2023-07-28T04:41:39;2.63;;;1.50;;
18999;SDS011;9633;50.980;13.850;2023-07-28T04:43:13;1.73;;;1.47;;
18999;SDS011;9633;50.980;13.850;2023-07-28T04:44:50;1.50;;;1.10;;
18999;SDS011;9633;50.980;13.850;2023-07-28T04:46:24;1.00;;;0.90;;
18999;SDS011;9633;50.980;13.850;2023-07-28T04:48:00;0.70;;;0.70;;
18999;SDS011;9633;50.980;13.850;2023-07-28T04:49:34;1.83;;;0.83;;
18999;SDS011;9633;50.980;13.850;2023-07-28T04:51:11;0.90;;;0.77;;
18999;SDS011;9633;50.980;13.850;2023-07-28T04:53:06;1.27;;;0.80;;
18999;SDS011;9633;50.980;13.850;2023-07-28T04:54:46;1.77;;;0.93;;
18999;SDS011;9633;50.980;13.850;2023-07-28T04:56:19;3.40;;;1.07;;
18999;SDS011;9633;50.980;13.850;2023-07-28T04:57:51;2.33;;;0.83;;
18999;SDS011;9633;50.980;13.850;2023-07-28T04:59:26;0.80;;;0.80;;
18999;SDS011;9633;50.980;13.850;2023-07-28T05:00:58;1.57;;;0.90;;
18999;SDS011;9633;50.980;13.850;2023-07-28T05:02:34;1.37;;;1.10;;
18999;SDS011;9633;50.980;13.850;2023-07-28T05:04:06;1.60;;;0.80;;
18999;SDS011;9633;50.980;13.850;2023-07-28T05:05:43;1.10;;;0.90;;
18999;SDS011;9633;50.980;13.850;2023-07-28T05:07:17;2.33;;;0.90;;
18999;SDS011;9633;50.980;13.850;2023-07-28T05:08:50;1.27;;;0.80;;
18999;SDS011;9633;50.980;13.850;2023-07-28T05:10:28;2.07;;;0.90;;
18999;SDS011;9633;50.980;13.850;2023-07-28T05:12:02;0.90;;;0.90;;
18999;SDS011;9633;50.980;13.850;2023-07-28T05:13:43;1.27;;;1.00;;
18999;SDS011;9633;50.980;13.850;2023-07-28T05:15:16;1.80;;;0.80;;
18999;SDS011;9633;50.980;13.850;2023-07-28T05:16:50;1.77;;;0.90;;
18999;SDS011;9633;50.980;13.850;2023-07-28T05:18:30;0.73;;;0.70;;
18999;SDS011;9633;50.980;13.850;2023-07-28T05:20:27;0.70;;;0.70;;
18999;SDS011;9633;50.980;13.850;2023-07-28T05:22:11;1.90;;;0.87;;
18999;SDS011;9633;50.980;13.850;2023-07-28T05:23:54;1.57;;;0.73;;
18999;SDS011;9633;50.980;13.850;2023-07-28T05:25:27;3.90;;;0.90;;
18999;SDS011;9633;50.980;13.850;2023-07-28T05:26:59;0.70;;;0.70;;
18999;SDS011;9633;50.980;13.850;2023-07-28T05:28:34;1.43;;;0.80;;
18999;SDS011;9633;50.980;13.850;2023-07-28T05:30:07;1.90;;;0.90;;
18999;SDS011;9633;50.980;13.850;2023-07-28T05:31:41;0.87;;;0.80;;
18999;SDS011;9633;50.980;13.850;2023-07-28T05:33:25;1.73;;;0.90;;
18999;SDS011;9633;50.980;13.850;2023-07-28T05:34:59;2.33;;;0.93;;
18999;SDS011;9633;50.980;13.850;2023-07-28T05:36:32;1.30;;;0.73;;
18999;SDS011;9633;50.980;13.850;2023-07-28T05:38:08;0.70;;;0.70;;
18999;SDS011;9633;50.980;13.850;2023-07-28T05:39:41;1.20;;;0.93;;
18999;SDS011;9633;50.980;13.850;2023-07-28T05:41:14;1.53;;;0.90;;
18999;SDS011;9633;50.980;13.850;2023-07-28T05:42:49;2.13;;;1.00;;
18999;SDS011;9633;50.980;13.850;2023-07-28T05:44:21;1.10;;;0.80;;
18999;SDS011;9633;50.980;13.850;2023-07-28T05:45:54;1.67;;;0.70;;
18999;SDS011;9633;50.980;13.850;2023-07-28T05:47:27;0.83;;;0.77;;
18999;SDS011;9633;50.980;13.850;2023-07-28T05:49:01;1.37;;;0.90;;
18999;SDS011;9633;50.980;13.850;2023-07-28T05:50:37;0.97;;;0.90;;
18999;SDS011;9633;50.980;13.850;2023-07-28T05:52:10;1.73;;;1.03;;
18999;SDS011;9633;50.980;13.850;2023-07-28T05:53:45;1.30;;;0.90;;
18999;SDS011;9633;50.980;13.850;2023-07-28T05:55:17;1.30;;;0.90;;
18999;SDS011;9633;50.980;13.850;2023-07-28T05:56:50;1.63;;;0.93;;
18999;SDS011;9633;50.980;13.850;2023-07-28T05:58:23;1.00;;;1.00;;
18999;SDS011;9633;50.980;13.850;2023-07-28T05:59:56;3.43;;;1.17;;
18999;SDS011;9633;50.980;13.850;2023-07-28T06:01:29;1.27;;;1.10;;
18999;SDS011;9633;50.980;13.850;2023-07-28T06:03:20;0.90;;;0.90;;
18999;SDS011;9633;50.980;13.850;2023-07-28T06:05:03;1.03;;;0.97;;
18999;SDS011;9633;50.980;13.850;2023-07-28T06:06:37;1.60;;;0.83;;
18999;SDS011;9633;50.980;13.850;2023-07-28T06:08:09;1.57;;;0.80;;
18999;SDS011;9633;50.980;13.850;2023-07-28T06:09:44;1.27;;;0.80;;
18999;SDS011;9633;50.980;13.850;2023-07-28T06:11:16;1.73;;;0.90;;
18999;SDS011;9633;50.980;13.850;2023-07-28T06:12:50;1.07;;;0.93;;
18999;SDS011;9633;50.980;13.850;2023-07-28T06:14:22;2.37;;;0.90;;
18999;SDS011;9633;50.980;13.850;2023-07-28T06:15:56;1.10;;;0.90;;
18999;SDS011;9633;50.980;13.850;2023-07-28T06:17:29;1.77;;;0.90;;
18999;SDS011;9633;50.980;13.850;2023-07-28T06:19:03;2.17;;;0.90;;
18999;SDS011;9633;50.980;13.850;2023-07-28T06:20:37;1.00;;;0.90;;
18999;SDS011;9633;50.980;13.850;2023-07-28T06:22:10;1.63;;;0.73;;
18999;SDS011;9633;50.980;13.850;2023-07-28T06:23:46;2.83;;;0.83;;
18999;SDS011;9633;50.980;13.850;2023-07-28T06:25:21;3.07;;;1.33;;
18999;SDS011;9633;50.980;13.850;2023-07-28T06:26:53;1.57;;;0.77;;
18999;SDS011;9633;50.980;13.850;2023-07-28T06:28:26;1.53;;;0.90;;
18999;SDS011;9633;50.980;13.850;2023-07-28T06:29:59;0.77;;;0.77;;
18999;SDS011;9633;50.980;13.850;2023-07-28T06:31:33;0.70;;;0.70;;
18999;SDS011;9633;50.980;13.850;2023-07-28T06:33:06;0.80;;;0.80;;
18999;SDS011;9633;50.980;13.850;2023-07-28T06:34:39;1.93;;;0.80;;
18999;SDS011;9633;50.980;13.850;2023-07-28T06:36:11;1.50;;;0.70;;
18999;SDS011;9633;50.980;13.850;2023-07-28T06:37:45;1.90;;;0.77;;
18999;SDS011;9633;50.980;13.850;2023-07-28T06:39:17;1.00;;;0.70;;
18999;SDS011;9633;50.980;13.850;2023-07-28T06:40:51;0.97;;;0.67;;
18999;SDS011;9633;50.980;13.850;2023-07-28T06:42:24;0.90;;;0.67;;
18999;SDS011;9633;50.980;13.850;2023-07-28T06:44:00;1.50;;;0.80;;
18999;SDS011;9633;50.980;13.850;2023-07-28T06:45:34;2.20;;;0.63;;
18999;SDS011;9633;50.980;13.850;2023-07-28T06:47:07;0.70;;;0.60;;
18999;SDS011;9633;50.980;13.850;2023-07-28T06:48:39;0.97;;;0.80;;
18999;SDS011;9633;50.980;13.850;2023-07-28T06:50:13;0.83;;;0.70;;
18999;SDS011;9633;50.980;13.850;2023-07-28T06:51:45;1.80;;;0.63;;
18999;SDS011;9633;50.980;13.850;2023-07-28T06:53:18;0.80;;;0.60;;
18999;SDS011;9633;50.980;13.850;2023-07-28T06:54:51;1.63;;;0.60;;
18999;SDS011;9633;50.980;13.850;2023-07-28T06:56:26;0.50;;;0.50;;
18999;SDS011;9633;50.980;13.850;2023-07-28T06:57:59;1.17;;;0.60;;
18999;SDS011;9633;50.980;13.850;2023-07-28T06:59:32;0.90;;;0.50;;
18999;SDS011;9633;50.980;13.850;2023-07-28T07:01:04;2.90;;;0.50;;
18999;SDS011;9633;50.980;13.850;2023-07-28T07:02:37;1.03;;;0.60;;
18999;SDS011;9633;50.980;13.850;2023-07-28T07:04:10;1.53;;;0.60;;
18999;SDS011;9633;50.980;13.850;2023-07-28T07:05:43;0.40;;;0.40;;
18999;SDS011;9633;50.980;13.850;2023-07-28T07:07:15;0.43;;;0.40;;
18999;SDS011;9633;50.980;13.850;2023-07-28T07:08:49;2.63;;;0.60;;
18999;SDS011;9633;50.980;13.850;2023-07-28T07:10:22;0.73;;;0.40;;
18999;SDS011;9633;50.980;13.850;2023-07-28T07:11:55;2.13;;;0.60;;
18999;SDS011;9633;50.980;13.850;2023-07-28T07:13:29;1.20;;;0.50;;
18999;SDS011;9633;50.980;13.850;2023-07-28T07:15:01;0.60;;;0.43;;
18999;SDS011;9633;50.980;13.850;2023-07-28T07:16:34;0.40;;;0.40;;
18999;SDS011;9633;50.980;13.850;2023-07-28T07:18:08;0.40;;;0.33;;
18999;SDS011;9633;50.980;13.850;2023-07-28T07:19:40;1.53;;;0.60;;
18999;SDS011;9633;50.980;13.850;2023-07-28T07:21:13;2.63;;;0.40;;
18999;SDS011;9633;50.980;13.850;2023-07-28T07:22:46;1.27;;;0.50;;
18999;SDS011;9633;50.980;13.850;2023-07-28T07:24:19;1.07;;;0.60;;
18999;SDS011;9633;50.980;13.850;2023-07-28T07:25:51;0.50;;;0.47;;
18999;SDS011;9633;50.980;13.850;2023-07-28T07:27:25;1.37;;;0.40;;
18999;SDS011;9633;50.980;13.850;2023-07-28T07:28:58;2.27;;;0.60;;
18999;SDS011;9633;50.980;13.850;2023-07-28T07:30:31;0.93;;;0.50;;
18999;SDS011;9633;50.980;13.850;2023-07-28T07:32:05;0.60;;;0.50;;
18999;SDS011;9633;50.980;13.850;2023-07-28T07:33:38;1.17;;;0.50;;
18999;SDS011;9633;50.980;13.850;2023-07-28T07:35:11;1.90;;;0.57;;
18999;SDS011;9633;50.980;13.850;2023-07-28T07:36:45;0.70;;;0.40;;
18999;SDS011;9633;50.980;13.850;2023-07-28T07:38:17;0.50;;;0.50;;
18999;SDS011;9633;50.980;13.850;2023-07-28T07:39:50;1.27;;;0.50;;
18999;SDS011;9633;50.980;13.850;2023-07-28T07:41:22;1.37;;;0.50;;
18999;SDS011;9633;50.980;13.850;2023-07-28T07:42:57;1.17;;;0.40;;
18999;SDS011;9633;50.980;13.850;2023-07-28T07:44:29;1.13;;;0.50;;
18999;SDS011;9633;50.980;13.850;2023-07-28T07:46:02;0.57;;;0.53;;
18999;SDS011;9633;50.980;13.850;2023-07-28T07:47:34;0.40;;;0.30;;
18999;SDS011;9633;50.980;13.850;2023-07-28T07:49:08;0.40;;;0.40;;
18999;SDS011;9633;50.980;13.850;2023-07-28T07:50:41;1.77;;;0.40;;
18999;SDS011;9633;50.980;13.850;2023-07-28T07:52:13;1.27;;;0.30;;
18999;SDS011;9633;50.980;13.850;2023-07-28T07:53:46;1.23;;;0.30;;
18999;SDS011;9633;50.980;13.850;2023-07-28T07:55:19;0.60;;;0.23;;
18999;SDS011;9633;50.980;13.850;2023-07-28T07:56:52;1.70;;;0.40;;
18999;SDS011;9633;50.980;13.850;2023-07-28T07:58:26;0.40;;;0.40;;
18999;SDS011;9633;50.980;13.850;2023-07-28T07:59:59;0.57;;;0.40;;
18999;SDS011;9633;50.980;13.850;2023-07-28T08:01:42;0.30;;;0.30;;
18999;SDS011;9633;50.980;13.850;2023-07-28T08:03:16;0.37;;;0.33;;
18999;SDS011;9633;50.980;13.850;2023-07-28T08:04:51;0.60;;;0.30;;
18999;SDS011;9633;50.980;13.850;2023-07-28T08:06:23;0.40;;;0.40;;
18999;SDS011;9633;50.980;13.850;2023-07-28T08:07:56;1.03;;;0.30;;
18999;SDS011;9633;50.980;13.850;2023-07-28T08:09:29;0.30;;;0.30;;
18999;SDS011;9633;50.980;13.850;2023-07-28T08:11:02;1.50;;;0.30;;
18999;SDS011;9633;50.980;13.850;2023-07-28T08:12:34;0.30;;;0.30;;
18999;SDS011;9633;50.980;13.850;2023-07-28T08:14:09;0.40;;;0.40;;
18999;SDS011;9633;50.980;13.850;2023-07-28T08:15:42;0.30;;;0.30;;
18999;SDS011;9633;50.980;13.850;2023-07-28T08:17:15;0.40;;;0.40;;
18999;SDS011;9633;50.980;13.850;2023-07-28T08:18:47;1.23;;;0.30;;
18999;SDS011;9633;50.980;13.850;2023-07-28T08:20:21;0.60;;;0.40;;
18999;SDS011;9633;50.980;13.850;2023-07-28T08:21:53;0.20;;;0.20;;
18999;SDS011;9633;50.980;13.850;2023-07-28T08:23:26;0.40;;;0.20;;
18999;SDS011;9633;50.980;13.850;2023-07-28T08:24:58;1.07;;;0.40;;
18999;SDS011;9633;50.980;13.850;2023-07-28T08:26:31;1.50;;;0.40;;
18999;SDS011;9633;50.980;13.850;2023-07-28T08:28:03;0.33;;;0.30;;
18999;SDS011;9633;50.980;13.850;2023-07-28T08:29:38;0.30;;;0.30;;
18999;SDS011;9633;50.980;13.850;2023-07-28T08:31:11;0.90;;;0.40;;
18999;SDS011;9633;50.980;13.850;2023-07-28T08:32:43;0.47;;;0.40;;
18999;SDS011;9633;50.980;13.850;2023-07-28T08:34:17;0.50;;;0.40;;
18999;SDS011;9633;50.980;13.850;2023-07-28T08:35:49;0.90;;;0.40;;
18999;SDS011;9633;50.980;13.850;2023-07-28T08:37:22;1.43;;;0.53;;
18999;SDS011;9633;50.980;13.850;2023-07-28T08:38:54;0.40;;;0.30;;
18999;SDS011;9633;50.980;13.850;2023-07-28T08:40:28;0.50;;;0.40;;
18999;SDS011;9633;50.980;13.850;2023-07-28T08:42:00;1.00;;;0.33;;
18999;SDS011;9633;50.980;13.850;2023-07-28T08:43:34;0.30;;;0.30;;
18999;SDS011;9633;50.980;13.850;2023-07-28T08:45:08;0.83;;;0.40;;
18999;SDS011;9633;50.980;13.850;2023-07-28T08:46:41;0.60;;;0.40;;
18999;SDS011;9633;50.980;13.850;2023-07-28T08:48:14;0.40;;;0.40;;
18999;SDS011;9633;50.980;13.850;2023-07-28T08:49:47;0.67;;;0.40;;
18999;SDS011;9633;50.980;13.850;2023-07-28T08:51:21;1.57;;;0.50;;
18999;SDS011;9633;50.980;13.850;2023-07-28T08:52:56;1.00;;;0.43;;
18999;SDS011;9633;50.980;13.850;2023-07-28T08:54:28;0.40;;;0.40;;
18999;SDS011;9633;50.980;13.850;2023-07-28T08:56:01;0.30;;;0.30;;
18999;SDS011;9633;50.980;13.850;2023-07-28T08:57:37;0.50;;;0.50;;
18999;SDS011;9633;50.980;13.850;2023-07-28T08:59:10;0.50;;;0.40;;
18999;SDS011;9633;50.980;13.850;2023-07-28T09:00:44;0.37;;;0.30;;
18999;SDS011;9633;50.980;13.850;2023-07-28T09:02:20;1.50;;;0.40;;
18999;SDS011;9633;50.980;13.850;2023-07-28T09:03:53;1.00;;;0.50;;
18999;SDS011;9633;50.980;13.850;2023-07-28T09:05:26;0.47;;;0.40;;
18999;SDS011;9633;50.980;13.850;2023-07-28T09:07:00;0.50;;;0.50;;
18999;SDS011;9633;50.980;13.850;2023-07-28T09:08:37;0.73;;;0.37;;
18999;SDS011;9633;50.980;13.850;2023-07-28T09:10:11;0.50;;;0.50;;
18999;SDS011;9633;50.980;13.850;2023-07-28T09:11:44;1.17;;;0.50;;
18999;SDS011;9633;50.980;13.850;2023-07-28T09:13:18;1.20;;;0.40;;
18999;SDS011;9633;50.980;13.850;2023-07-28T09:14:53;0.40;;;0.40;;
18999;SDS011;9633;50.980;13.850;2023-07-28T09:16:30;1.03;;;0.33;;
18999;SDS011;9633;50.980;13.850;2023-07-28T09:18:04;2.77;;;0.40;;
18999;SDS011;9633;50.980;13.850;2023-07-28T09:19:50;1.50;;;0.40;;
18999;SDS011;9633;50.980;13.850;2023-07-28T09:21:23;0.97;;;0.40;;
18999;SDS011;9633;50.980;13.850;2023-07-28T09:22:56;1.27;;;0.50;;
18999;SDS011;9633;50.980;13.850;2023-07-28T09:24:29;0.77;;;0.50;;
18999;SDS011;9633;50.980;13.850;2023-07-28T09:26:04;0.77;;;0.50;;